createdAt,value
2022-08-22T00:01:02.364Z,101312.16
2022-08-22T00:02:53.684Z,101345.19
2022-08-22T00:03:00.472Z,101341.38
2022-08-22T00:03:01.921Z,101339.84
2022-08-22T00:03:46.440Z,101315.03
2022-08-22T00:06:31.248Z,101311.59
2022-08-22T00:10:03.405Z,101315.31
2022-08-22T00:13:04.419Z,101315.44
2022-08-22T00:15:52.487Z,101314.88
2022-08-22T00:18:34.697Z,101313.44
2022-08-22T00:21:34.789Z,101316.19
2022-08-22T00:24:23.213Z,101318.06
2022-08-22T00:27:16.981Z,101312.72
2022-08-22T00:30:04.282Z,101309.28
2022-08-22T00:32:50.036Z,101313.00
2022-08-22T00:36:10.230Z,101314.03
2022-08-22T00:38:50.854Z,101316.19
2022-08-22T00:41:54.979Z,101314.59
2022-08-22T00:44:39.667Z,101308.72
2022-08-22T00:47:36.370Z,101310.72
2022-08-22T00:50:42.014Z,101306.50
2022-08-22T00:53:36.498Z,101313.00
2022-08-22T00:56:27.622Z,101321.19
2022-08-22T00:59:23.468Z,101314.69
2022-08-22T01:02:11.089Z,101321.91
2022-08-22T01:04:52.117Z,101321.91
2022-08-22T01:07:44.557Z,101322.66
2022-08-22T01:10:35.917Z,101318.94
2022-08-22T01:13:34.525Z,101317.91
2022-08-22T01:16:35.046Z,101322.38
2022-08-22T01:19:23.081Z,101325.09
2022-08-22T01:22:48.963Z,101323.09
2022-08-22T01:26:19.503Z,101321.34
2022-08-22T01:29:28.213Z,101325.09
2022-08-22T01:32:31.010Z,101316.19
2022-08-22T01:35:50.458Z,101323.59
2022-08-22T01:38:41.582Z,101315.72
2022-08-22T01:41:35.584Z,101315.00
2022-08-22T01:44:12.113Z,101311.56
2022-08-22T01:47:11.963Z,101313.25
2022-08-22T01:49:51.791Z,101316.00
2022-08-22T01:52:50.807Z,101306.94
2022-08-22T01:55:34.673Z,101309.81
2022-08-22T01:58:15.672Z,101311.81
2022-08-22T02:01:22.090Z,101310.09
2022-08-22T02:04:28.724Z,101310.09
2022-08-22T02:07:53.394Z,101303.19
2022-08-22T02:11:07.151Z,101307.22
2022-08-22T02:13:54.974Z,101303.78
2022-08-22T02:16:30.793Z,101309.22
2022-08-22T02:19:15.792Z,101304.63
2022-08-22T02:22:50.410Z,101305.47
2022-08-22T02:25:30.627Z,101307.50
2022-08-22T02:28:28.121Z,101310.50
2022-08-22T02:31:17.047Z,101299.88
2022-08-22T02:33:46.799Z,101303.72
2022-08-22T02:36:25.081Z,101297.41
2022-08-22T02:39:32.321Z,101294.94
2022-08-22T02:42:28.403Z,101293.97
2022-08-22T02:45:20.795Z,101290.50
2022-08-22T02:48:11.556Z,101288.63
2022-08-22T02:50:51.605Z,101286.75
2022-08-22T02:53:33.652Z,101290.25
2022-08-22T02:56:12.455Z,101288.22
2022-08-22T02:58:45.193Z,101285.50
2022-08-22T03:01:29.117Z,101285.50
2022-08-22T03:04:18.024Z,101292.66
2022-08-22T03:07:14.643Z,101286.50
2022-08-22T03:10:10.204Z,101281.03
2022-08-22T03:13:09.631Z,101276.28
2022-08-22T03:16:10.858Z,101275.44
2022-08-22T03:19:31.626Z,101278.44
2022-08-22T03:22:08.395Z,101278.75
2022-08-22T03:25:02.501Z,101274.97
2022-08-22T03:27:42.272Z,101275.84
2022-08-22T03:30:30.945Z,101276.59
2022-08-22T03:33:27.641Z,101276.59
2022-08-22T03:36:17.620Z,101284.59
2022-08-22T03:39:17.565Z,101271.97
2022-08-22T03:42:09.481Z,101274.25
2022-08-22T03:45:14.045Z,101268.94
2022-08-22T03:48:17.644Z,101266.22
2022-08-22T03:51:15.433Z,101252.84
2022-08-22T03:54:19.254Z,101259.44
2022-08-22T03:57:06.120Z,101258.88
2022-08-22T03:59:54.139Z,101260.88
2022-08-22T04:03:07.311Z,101263.16
2022-08-22T04:06:25.767Z,101261.13
2022-08-22T04:09:32.773Z,101258.38
2022-08-22T04:12:27.146Z,101257.94
2022-08-22T04:15:26.577Z,101258.78
2022-08-22T04:18:14.569Z,101258.56
2022-08-22T04:21:02.269Z,101263.59
2022-08-22T04:24:15.447Z,101258.66
2022-08-22T04:26:50.799Z,101260.91
2022-08-22T04:29:55.261Z,101267.38
2022-08-22T04:32:25.352Z,101268.38
2022-08-22T04:35:11.984Z,101267.78
2022-08-22T04:37:52.362Z,101275.38
2022-08-22T04:40:27.593Z,101280.09
2022-08-22T04:43:09.052Z,101275.91
2022-08-22T04:45:46.189Z,101273.44
2022-08-22T04:48:29.602Z,101267.41
2022-08-22T04:51:15.560Z,101268.56
2022-08-22T04:54:39.894Z,101265.09
2022-08-22T04:57:31.134Z,101271.66
2022-08-22T05:00:05.997Z,101269.34
2022-08-22T05:02:38.874Z,101281.97
2022-08-22T05:05:16.558Z,101290.16
2022-08-22T05:07:55.437Z,101292.63
2022-08-22T05:10:42.106Z,101290.34
2022-08-22T05:13:21.609Z,101292.53
2022-08-22T05:15:54.730Z,101296.47
2022-08-22T05:18:40.310Z,101301.09
2022-08-22T05:21:13.932Z,101287.66
2022-08-22T05:24:03.457Z,101288.88
2022-08-22T05:26:38.972Z,101290.31
2022-08-22T05:29:09.522Z,101291.06
2022-08-22T05:31:49.246Z,101299.97
2022-08-22T05:34:26.666Z,101297.94
2022-08-22T05:37:04.605Z,101294.97
2022-08-22T05:39:40.424Z,101298.16
2022-08-22T05:42:15.919Z,101305.78
2022-08-22T05:44:43.201Z,101315.41
2022-08-22T05:47:23.539Z,101313.13
2022-08-22T05:50:05.323Z,101311.72
2022-08-22T05:52:40.972Z,101320.22
2022-08-22T05:55:25.687Z,101324.13
2022-08-22T05:58:11.645Z,101314.97
2022-08-22T06:00:45.170Z,101314.25
2022-08-22T06:03:27.668Z,101306.19
2022-08-22T06:06:03.308Z,101304.63
2022-08-22T06:09:16.545Z,101312.69
2022-08-22T06:11:55.080Z,101310.00
2022-08-22T06:15:20.977Z,101310.84
2022-08-22T06:17:55.816Z,101320.66
2022-08-22T06:20:34.926Z,101317.91
2022-08-22T06:23:05.435Z,101317.47
2022-08-22T06:25:40.737Z,101323.50
2022-08-22T06:28:16.789Z,101321.50
2022-08-22T06:30:47.631Z,101328.13
2022-08-22T06:33:23.913Z,101335.16
2022-08-22T06:36:20.578Z,101334.28
2022-08-22T06:39:16.920Z,101335.16
2022-08-22T06:41:59.111Z,101333.97
2022-08-22T06:44:50.479Z,101332.28
2022-08-22T06:47:33.558Z,101335.84
2022-08-22T06:50:15.219Z,101340.31
2022-08-22T06:53:26.671Z,101344.31
2022-08-22T06:56:07.421Z,101338.72
2022-08-22T06:58:45.867Z,101338.28
2022-08-22T07:01:25.249Z,101343.00
2022-08-22T07:03:59.401Z,101340.88
2022-08-22T07:06:41.292Z,101337.38
2022-08-22T07:09:19.346Z,101335.50
2022-08-22T07:11:46.511Z,101337.63
2022-08-22T07:14:18.419Z,101338.44
2022-08-22T07:17:02.122Z,101348.50
2022-08-22T07:19:38.126Z,101344.00
2022-08-22T07:22:30.423Z,101346.97
2022-08-22T07:25:14.508Z,101347.78
2022-08-22T07:28:08.569Z,101349.13
2022-08-22T07:31:02.680Z,101341.66
2022-08-22T07:33:50.412Z,101349.47
2022-08-22T07:36:46.882Z,101349.75
2022-08-22T07:39:30.654Z,101348.84
2022-08-22T07:42:17.454Z,101342.47
2022-08-22T07:45:08.263Z,101343.00
2022-08-22T07:47:52.642Z,101341.53
2022-08-22T07:50:30.028Z,101335.66
2022-08-22T07:53:16.808Z,101331.13
2022-08-22T07:55:49.658Z,101331.03
2022-08-22T07:58:19.311Z,101334.88
2022-08-22T08:00:50.279Z,101334.16
2022-08-22T08:03:23.024Z,101329.38
2022-08-22T08:05:50.533Z,101331.19
2022-08-22T08:08:43.936Z,101333.72
2022-08-22T08:11:16.922Z,101332.97
2022-08-22T08:13:52.770Z,101321.44
2022-08-22T08:16:25.179Z,101322.94
2022-08-22T08:18:57.031Z,101317.63
2022-08-22T08:21:53.460Z,101308.41
2022-08-22T08:24:31.552Z,101319.28
2022-08-22T08:27:32.973Z,101315.03
2022-08-22T08:30:15.289Z,101300.34
2022-08-22T08:32:49.361Z,101304.06
2022-08-22T08:35:25.663Z,101298.72
2022-08-22T08:38:08.664Z,101301.06
2022-08-22T08:41:00.359Z,101306.56
2022-08-22T08:43:40.531Z,101300.66
2022-08-22T08:46:25.585Z,101302.06
2022-08-22T08:49:30.794Z,101301.50
2022-08-22T08:52:25.172Z,101308.78
2022-08-22T08:55:19.991Z,101308.78
2022-08-22T08:58:40.368Z,101303.84
2022-08-22T09:01:16.458Z,101302.91
2022-08-22T09:04:54.682Z,101297.06
2022-08-22T09:07:44.015Z,101310.78
2022-08-22T09:10:47.304Z,101301.97
2022-08-22T09:13:40.657Z,101286.56
2022-08-22T09:17:04.911Z,101285.50
2022-08-22T09:19:55.686Z,101290.34
2022-08-22T09:22:50.157Z,101283.66
2022-08-22T09:25:38.608Z,101288.03
2022-08-22T09:28:40.977Z,101279.44
2022-08-22T09:31:44.954Z,101276.19
2022-08-22T09:34:29.626Z,101271.19
2022-08-22T09:37:17.897Z,101280.34
2022-08-22T09:40:06.451Z,101282.44
2022-08-22T09:43:01.946Z,101285.03
2022-08-22T09:45:40.717Z,101279.97
2022-08-22T09:48:39.662Z,101288.56
2022-08-22T09:52:15.412Z,101286.47
2022-08-22T09:55:08.596Z,101276.34
2022-08-22T09:57:50.629Z,101285.03
2022-08-22T10:00:34.463Z,101284.84
2022-08-22T10:03:33.248Z,101276.66
2022-08-22T10:06:20.034Z,101269.69
2022-08-22T10:09:03.518Z,101275.53
2022-08-22T10:11:45.843Z,101268.47
2022-08-22T10:15:00.436Z,101266.53
2022-08-22T10:17:41.132Z,101263.94
2022-08-22T10:21:09.263Z,101264.66
2022-08-22T10:23:52.735Z,101259.16
2022-08-22T10:26:50.819Z,101256.38
2022-08-22T10:30:05.229Z,101261.81
2022-08-22T10:32:53.502Z,101250.66
2022-08-22T10:36:07.796Z,101255.63
2022-08-22T10:38:53.358Z,101249.22
2022-08-22T10:42:00.620Z,101242.44
2022-08-22T10:44:42.193Z,101247.56
2022-08-22T10:47:21.290Z,101249.88
2022-08-22T10:50:10.801Z,101249.88
2022-08-22T10:53:35.413Z,101245.78
2022-08-22T10:56:16.143Z,101244.22
2022-08-22T10:59:18.374Z,101249.22
2022-08-22T11:02:27.609Z,101241.75
2022-08-22T11:05:14.622Z,101240.31
2022-08-22T11:07:50.256Z,101232.16
2022-08-22T11:10:30.421Z,101232.59
2022-08-22T11:13:29.298Z,101227.56
2022-08-22T11:16:13.964Z,101238.09
2022-08-22T11:19:15.847Z,101228.53
2022-08-22T11:21:51.161Z,101226.56
2022-08-22T11:25:02.352Z,101230.22
2022-08-22T11:27:55.061Z,101235.56
2022-08-22T11:30:59.959Z,101225.53
2022-08-22T11:33:47.768Z,101228.56
2022-08-22T11:36:31.486Z,101223.25
2022-08-22T11:39:03.223Z,101218.31
2022-08-22T11:41:59.325Z,101224.28
2022-08-22T11:44:50.282Z,101221.28
2022-08-22T11:47:27.191Z,101224.72
2022-08-22T11:50:23.284Z,101213.66
2022-08-22T11:53:15.022Z,101213.66
2022-08-22T11:56:15.700Z,101208.94
2022-08-22T11:59:07.128Z,101211.06
2022-08-22T12:01:55.326Z,101212.28
2022-08-22T12:04:47.441Z,101205.38
2022-08-22T12:07:21.751Z,101204.59
2022-08-22T12:10:04.997Z,101206.16
2022-08-22T12:13:06.640Z,101213.88
2022-08-22T12:16:07.755Z,101212.66
2022-08-22T12:19:06.101Z,101210.97
2022-08-22T12:22:16.564Z,101213.28
2022-08-22T12:25:33.226Z,101214.59
2022-08-22T12:28:30.206Z,101209.88
2022-08-22T12:31:34.827Z,101206.69
2022-08-22T12:34:55.020Z,101202.19
2022-08-22T12:37:36.174Z,101201.56
2022-08-22T12:40:57.011Z,101198.38
2022-08-22T12:43:44.643Z,101193.22
2022-08-22T12:46:16.446Z,101191.09
2022-08-22T12:49:10.965Z,101191.94
2022-08-22T12:52:14.405Z,101188.91
2022-08-22T12:54:52.897Z,101194.50
2022-08-22T12:58:08.856Z,101187.00
2022-08-22T13:00:49.011Z,101180.41
2022-08-22T13:03:35.384Z,101185.75
2022-08-22T13:06:33.862Z,101180.44
2022-08-22T13:09:11.073Z,101178.88
2022-08-22T13:11:43.419Z,101177.38
2022-08-22T13:14:21.954Z,101181.00
2022-08-22T13:17:10.267Z,101177.47
2022-08-22T13:20:03.103Z,101159.72
2022-08-22T13:22:35.445Z,101166.28
2022-08-22T13:25:26.390Z,101165.34
2022-08-22T13:28:03.786Z,101157.84
2022-08-22T13:30:40.204Z,101154.41
2022-08-22T13:33:11.186Z,101150.63
2022-08-22T13:36:00.725Z,101145.72
2022-08-22T13:38:46.558Z,101148.94
2022-08-22T13:41:24.697Z,101147.72
2022-08-22T13:44:16.243Z,101138.19
2022-08-22T13:47:04.191Z,101146.59
2022-08-22T13:49:41.149Z,101145.75
2022-08-22T13:52:38.155Z,101140.44
2022-08-22T13:55:29.465Z,101157.31
2022-08-22T13:58:11.328Z,101151.34
2022-08-22T14:01:15.879Z,101149.66
2022-08-22T14:03:54.669Z,101149.66
2022-08-22T14:06:46.432Z,101141.44
2022-08-22T14:09:54.546Z,101134.81
2022-08-22T14:12:56.631Z,101145.03
2022-08-22T14:15:32.331Z,101149.88
2022-08-22T14:18:30.456Z,101141.75
2022-08-22T14:21:48.412Z,101142.78
2022-08-22T14:24:29.936Z,101137.44
2022-08-22T14:27:06.673Z,101130.19
2022-08-22T14:29:56.576Z,101140.47
2022-08-22T14:32:25.125Z,101128.06
2022-08-22T14:35:23.522Z,101127.56
2022-08-22T14:38:46.334Z,101133.44
2022-08-22T14:41:56.135Z,101124.84
2022-08-22T14:44:31.157Z,101119.72
2022-08-22T14:47:04.371Z,101114.69
2022-08-22T14:49:58.836Z,101119.06
2022-08-22T14:52:50.342Z,101120.91
2022-08-22T14:55:28.182Z,101116.19
2022-08-22T14:58:03.468Z,101112.56
2022-08-22T15:00:39.841Z,101110.41
2022-08-22T15:03:37.421Z,101114.72
2022-08-22T15:06:07.291Z,101108.34
2022-08-22T15:08:50.439Z,101107.63
2022-08-22T15:11:17.232Z,101100.16
2022-08-22T15:14:13.433Z,101102.78
2022-08-22T15:16:50.666Z,101104.34
2022-08-22T15:19:23.268Z,101100.56
2022-08-22T15:21:51.301Z,101106.66
2022-08-22T15:24:20.680Z,101106.31
2022-08-22T15:26:55.464Z,101098.00
2022-08-22T15:29:31.776Z,101104.59
2022-08-22T15:32:03.206Z,101098.31
2022-08-22T15:34:41.819Z,101095.09
2022-08-22T15:37:18.029Z,101103.88
2022-08-22T15:40:08.445Z,101101.19
2022-08-22T15:42:48.839Z,101092.47
2022-08-22T15:45:39.525Z,101095.06
2022-08-22T15:48:26.567Z,101093.97
2022-08-22T15:51:10.171Z,101099.91
2022-08-22T15:54:24.937Z,101084.00
2022-08-22T15:57:10.439Z,101086.47
2022-08-22T15:59:54.114Z,101091.47
2022-08-22T16:02:42.023Z,101083.38
2022-08-22T16:05:11.575Z,101080.56
2022-08-22T16:08:02.692Z,101077.88
2022-08-22T16:10:56.041Z,101076.03
2022-08-22T16:13:29.565Z,101065.38
2022-08-22T16:16:08.316Z,101064.97
2022-08-22T16:18:39.226Z,101067.00
2022-08-22T16:21:13.252Z,101063.28
2022-08-22T16:23:58.088Z,101066.78
2022-08-22T16:26:24.818Z,101061.53
2022-08-22T16:29:07.051Z,101064.00
2022-08-22T16:31:45.999Z,101057.41
2022-08-22T16:34:16.162Z,101051.16
2022-08-22T16:37:23.393Z,101049.69
2022-08-22T16:40:13.089Z,101046.69
2022-08-22T16:42:46.776Z,101049.75
2022-08-22T16:45:36.041Z,101049.91
2022-08-22T16:48:33.557Z,101045.75
2022-08-22T16:51:18.703Z,101044.19
2022-08-22T16:54:12.240Z,101044.88
2022-08-22T16:56:53.569Z,101042.78
2022-08-22T16:59:48.815Z,101035.59
2022-08-22T17:02:43.632Z,101031.69
2022-08-22T17:05:32.315Z,101034.53
2022-08-22T17:08:11.843Z,101034.13
2022-08-22T17:11:01.631Z,101018.75
2022-08-22T17:13:48.977Z,101024.34
2022-08-22T17:17:01.466Z,101019.78
2022-08-22T17:19:39.259Z,101021.66
2022-08-22T17:22:22.603Z,101024.78
2022-08-22T17:25:33.994Z,101021.84
2022-08-22T17:28:09.842Z,101021.56
2022-08-22T17:31:10.542Z,101022.44
2022-08-22T17:34:18.566Z,101016.28
2022-08-22T17:36:49.972Z,101023.91
2022-08-22T17:39:55.933Z,101026.19
2022-08-22T17:42:44.217Z,101029.16
2022-08-22T17:45:47.042Z,101024.81
2022-08-22T17:48:25.334Z,101022.56
2022-08-22T17:51:19.266Z,101035.69
2022-08-22T17:54:21.520Z,101033.06
2022-08-22T17:57:55.584Z,101040.19
2022-08-22T18:00:30.763Z,101041.38
2022-08-22T18:03:32.309Z,101047.94
2022-08-22T18:06:24.248Z,101047.22
2022-08-22T18:09:13.628Z,101046.94
2022-08-22T18:11:52.067Z,101052.13
2022-08-22T18:14:46.485Z,101049.53
2022-08-22T18:17:36.755Z,101053.44
2022-08-22T18:20:21.197Z,101056.50
2022-08-22T18:23:01.632Z,101054.09
2022-08-22T18:25:40.747Z,101060.59
2022-08-22T18:31:38.741Z,101061.03
2022-08-22T18:34:24.560Z,101067.53
2022-08-22T18:37:05.546Z,101068.50
2022-08-22T18:39:50.077Z,101070.28
2022-08-22T18:42:50.394Z,101066.78
2022-08-22T18:45:46.809Z,101074.28
2022-08-22T18:48:54.421Z,101072.38
2022-08-22T18:51:38.680Z,101072.22
2022-08-22T18:54:05.578Z,101077.84
2022-08-22T18:57:22.716Z,101079.63
2022-08-22T19:00:16.489Z,101078.66
2022-08-22T19:02:57.668Z,101084.69
2022-08-22T19:05:27.153Z,101077.66
2022-08-22T19:07:59.986Z,101080.44
2022-08-22T19:11:03.342Z,101085.06
2022-08-22T19:14:08.626Z,101086.78
2022-08-22T19:17:23.141Z,101093.34
2022-08-22T19:20:14.634Z,101089.72
2022-08-22T19:22:42.774Z,101092.50
2022-08-22T19:25:28.555Z,101099.72
2022-08-22T19:28:10.386Z,101093.16
2022-08-22T19:31:14.930Z,101096.31
2022-08-22T19:34:08.735Z,101094.09
2022-08-22T19:36:36.176Z,101102.53
2022-08-22T19:39:41.538Z,101102.06
2022-08-22T19:42:27.786Z,101096.06
2022-08-22T19:45:06.594Z,101095.78
2022-08-22T19:47:43.457Z,101097.19
2022-08-22T19:50:28.227Z,101096.50
2022-08-22T19:53:25.069Z,101096.03
2022-08-22T19:56:13.583Z,101087.28
2022-08-22T19:58:59.491Z,101095.22
2022-08-22T20:01:44.449Z,101093.88
2022-08-22T20:04:40.721Z,101088.78
2022-08-22T20:07:26.950Z,101086.38
2022-08-22T20:10:20.724Z,101089.00
2022-08-22T20:13:07.809Z,101088.50
2022-08-22T20:16:19.037Z,101085.06
2022-08-22T20:19:07.650Z,101087.16
2022-08-22T20:22:00.021Z,101089.59
2022-08-22T20:24:40.308Z,101089.94
2022-08-22T20:27:27.803Z,101090.31
2022-08-22T20:30:25.631Z,101083.47
2022-08-22T20:32:59.670Z,101093.78
2022-08-22T20:35:41.175Z,101094.81
2022-08-22T20:38:15.621Z,101081.41
2022-08-22T20:41:20.953Z,101090.06
2022-08-22T20:43:58.436Z,101088.31
2022-08-22T20:46:53.666Z,101088.31
2022-08-22T20:49:32.489Z,101080.25
2022-08-22T20:52:08.533Z,101081.47
2022-08-22T20:54:40.855Z,101085.44
2022-08-22T20:57:21.536Z,101080.13
2022-08-22T20:59:51.402Z,101079.44
2022-08-22T21:02:28.689Z,101091.50
2022-08-22T21:05:11.221Z,101078.25
2022-08-22T21:07:49.330Z,101080.50
2022-08-22T21:10:46.367Z,101078.13
2022-08-22T21:13:20.426Z,101080.56
2022-08-22T21:16:10.928Z,101078.84
2022-08-22T21:18:40.565Z,101079.22
2022-08-22T21:21:29.609Z,101075.75
2022-08-22T21:24:08.067Z,101072.34
2022-08-22T21:26:45.192Z,101072.72
2022-08-22T21:29:11.955Z,101078.56
2022-08-22T21:31:46.334Z,101073.41
2022-08-22T21:34:24.349Z,101070.38
2022-08-22T21:36:53.994Z,101069.34
2022-08-22T21:39:28.390Z,101068.31
2022-08-22T21:42:00.991Z,101062.66
2022-08-22T21:44:30.728Z,101068.88
2022-08-22T21:47:30.873Z,101068.72
2022-08-22T21:50:25.707Z,101070.44
2022-08-22T21:52:55.287Z,101068.75
2022-08-22T21:55:26.780Z,101066.88
2022-08-22T21:58:11.991Z,101076.00
2022-08-22T22:00:49.536Z,101072.25
2022-08-22T22:03:25.474Z,101071.88
2022-08-22T22:05:57.308Z,101069.13
2022-08-22T22:08:29.167Z,101075.28
2022-08-22T22:11:04.735Z,101070.50
2022-08-22T22:13:35.317Z,101069.09
2022-08-22T22:16:03.030Z,101079.59
2022-08-22T22:18:35.621Z,101071.19
2022-08-22T22:21:02.745Z,101081.81
2022-08-22T22:23:29.942Z,101075.97
2022-08-22T22:26:01.089Z,101079.41
2022-08-22T22:28:40.148Z,101080.09
2022-08-22T22:31:07.905Z,101079.03
2022-08-22T22:33:39.600Z,101082.28
2022-08-22T22:36:13.593Z,101079.88
2022-08-22T22:38:41.059Z,101077.47
2022-08-22T22:41:08.459Z,101073.84
2022-08-22T22:43:35.378Z,101074.91
2022-08-22T22:46:02.330Z,101071.47
2022-08-22T22:48:29.403Z,101066.31
2022-08-22T22:50:56.257Z,101081.38
2022-08-22T22:53:38.100Z,101078.28
2022-08-22T22:56:09.586Z,101075.66
2022-08-22T22:58:38.465Z,101072.72
2022-08-22T23:01:23.507Z,101070.13
2022-08-22T23:03:56.287Z,101077.66
2022-08-22T23:06:26.575Z,101073.38
2022-08-22T23:08:54.413Z,101082.63
2022-08-22T23:11:26.901Z,101071.97
2022-08-22T23:13:54.664Z,101076.06
2022-08-22T23:16:27.277Z,101073.69
2022-08-22T23:18:55.318Z,101076.75
2022-08-22T23:21:30.093Z,101077.06
2022-08-22T23:24:00.666Z,101068.31
2022-08-22T23:26:28.968Z,101070.50
2022-08-22T23:28:57.390Z,101072.56
2022-08-22T23:31:29.430Z,101072.03
2022-08-22T23:34:00.942Z,101072.34
2022-08-22T23:36:29.609Z,101072.69
2022-08-22T23:38:57.127Z,101068.38
2022-08-22T23:41:24.126Z,101069.56
2022-08-22T23:43:54.500Z,101069.03
2022-08-22T23:46:25.742Z,101071.09
2022-08-22T23:48:53.350Z,101064.22
2022-08-22T23:51:23.884Z,101061.09
2022-08-22T23:53:57.624Z,101055.94
2022-08-22T23:56:53.613Z,101055.25
2022-08-22T23:59:30.647Z,101044.59
